Time;durP1;ratioP1;P1;durP2;ratioP2;P2;SDS_P1;SDS_P2;PMS_P1;PMS_P2;Temp;Humidity;BMP_temperature;BMP_pressure;BME280_temperature;BME280_humidity;BME280_pressure;Samples;Min_cycle;Max_cycle;Signal;HPM_P1;HPM_P2
2021/07/06 00:01:41;;;;;;;3.13;2.90;;;;;;;;;;5033098;28;20511;-59
2021/07/06 00:04:08;;;;;;;3.47;3.07;;;;;;;;;;5033421;28;20445;-59
2021/07/06 00:06:36;;;;;;;2.93;2.73;;;;;;;;;;5033440;28;20445;-59
2021/07/06 00:09:04;;;;;;;4.37;2.80;;;;;;;;;;5032977;28;20945;-61
2021/07/06 00:11:31;;;;;;;3.53;2.40;;;;;;;;;;5033421;28;20511;-59
2021/07/06 00:13:59;;;;;;;3.03;2.80;;;;;;;;;;5032894;28;20924;-59
2021/07/06 00:16:26;;;;;;;3.30;3.00;;;;;;;;;;5033280;28;20499;-59
2021/07/06 00:18:53;;;;;;;3.60;2.43;;;;;;;;;;5033248;28;20495;-59
2021/07/06 00:21:20;;;;;;;3.20;2.90;;;;;;;;;;5033201;28;20657;-59
2021/07/06 00:23:48;;;;;;;4.53;2.90;;;;;;;;;;5034964;28;20491;-59
2021/07/06 00:26:16;;;;;;;3.13;2.93;;;;;;;;;;5037013;28;20796;-59
2021/07/06 00:28:44;;;;;;;3.80;2.93;;;;;;;;;;5037494;28;20472;-59
2021/07/06 00:31:12;;;;;;;3.37;2.80;;;;;;;;;;5037479;28;20485;-59
2021/07/06 00:33:39;;;;;;;3.30;3.00;;;;;;;;;;5037161;28;20858;-59
2021/07/06 00:36:07;;;;;;;3.10;2.37;;;;;;;;;;5036851;28;20506;-59
2021/07/06 00:38:34;;;;;;;3.70;2.77;;;;;;;;;;5037039;28;20456;-59
2021/07/06 00:41:02;;;;;;;3.93;2.80;;;;;;;;;;5036674;28;20518;-59
2021/07/06 00:43:33;;;;;;;4.03;2.70;;;;;;;;;;5036696;28;20861;-59
2021/07/06 00:46:01;;;;;;;2.43;2.23;;;;;;;;;;5036645;28;20449;-59
2021/07/06 00:48:28;;;;;;;3.20;2.90;;;;;;;;;;5036905;28;20495;-59
2021/07/06 00:50:56;;;;;;;6.83;2.30;;;;;;;;;;5036472;28;21034;-59
2021/07/06 00:53:23;;;;;;;2.63;2.43;;;;;;;;;;5036349;28;20481;-59
2021/07/06 00:55:53;;;;;;;2.60;2.40;;;;;;;;;;5036470;28;20459;-59
2021/07/06 00:58:20;;;;;;;3.17;2.70;;;;;;;;;;5036705;28;20440;-59
2021/07/06 01:00:49;;;;;;;3.07;2.77;;;;;;;;;;5036257;28;20465;-59
2021/07/06 01:03:16;;;;;;;2.67;2.47;;;;;;;;;;5036611;28;20441;-59
2021/07/06 01:05:43;;;;;;;3.33;3.00;;;;;;;;;;5036231;28;20810;-59
2021/07/06 01:08:11;;;;;;;2.50;2.30;;;;;;;;;;5036234;28;20469;-59
2021/07/06 01:10:38;;;;;;;2.70;2.50;;;;;;;;;;5036070;28;20515;-59
2021/07/06 01:13:08;;;;;;;1.90;1.80;;;;;;;;;;5036368;28;20883;-59
2021/07/06 01:15:35;;;;;;;4.33;1.97;;;;;;;;;;5036456;28;21033;-60
2021/07/06 01:18:06;;;;;;;6.00;2.30;;;;;;;;;;5036162;28;20445;-58
2021/07/06 01:20:33;;;;;;;4.00;2.30;;;;;;;;;;5036333;28;20464;-59
2021/07/06 01:23:03;;;;;;;2.93;2.60;;;;;;;;;;5036021;28;20507;-59
2021/07/06 01:25:30;;;;;;;4.07;2.33;;;;;;;;;;5036221;28;20444;-58
2021/07/06 01:27:57;;;;;;;4.13;2.37;;;;;;;;;;5036308;28;20457;-58
2021/07/06 01:30:24;;;;;;;3.27;2.37;;;;;;;;;;5035873;28;20527;-59
2021/07/06 01:32:52;;;;;;;2.83;2.40;;;;;;;;;;5035829;28;20860;-59
2021/07/06 01:35:19;;;;;;;3.00;2.20;;;;;;;;;;5035296;28;20449;-59
2021/07/06 01:37:47;;;;;;;3.97;2.30;;;;;;;;;;5036053;28;20804;-59
2021/07/06 01:40:17;;;;;;;2.50;2.20;;;;;;;;;;5035610;28;20473;-59
2021/07/06 01:42:44;;;;;;;2.57;2.37;;;;;;;;;;5035878;28;20445;-59
2021/07/06 01:45:12;;;;;;;2.43;2.23;;;;;;;;;;5035594;28;20498;-59
2021/07/06 01:47:40;;;;;;;2.30;2.10;;;;;;;;;;5035999;28;20579;-59
2021/07/06 01:50:09;;;;;;;2.90;2.33;;;;;;;;;;5035390;28;20461;-59
2021/07/06 01:52:36;;;;;;;5.17;2.00;;;;;;;;;;5035665;28;20449;-59
2021/07/06 01:55:04;;;;;;;2.67;2.10;;;;;;;;;;5035599;28;20538;-59
2021/07/06 01:57:32;;;;;;;2.80;2.13;;;;;;;;;;5035683;28;20449;-58
2021/07/06 01:59:59;;;;;;;1.90;1.70;;;;;;;;;;5035493;28;20465;-58
2021/07/06 02:02:27;;;;;;;2.87;2.10;;;;;;;;;;5035439;28;20445;-59
2021/07/06 02:04:54;;;;;;;1.80;1.70;;;;;;;;;;5035100;28;20452;-59
2021/07/06 02:07:21;;;;;;;2.30;2.10;;;;;;;;;;5035562;28;20445;-59
2021/07/06 02:09:48;;;;;;;2.70;1.97;;;;;;;;;;5041502;28;20530;-59
2021/07/06 02:12:15;;;;;;;2.30;2.03;;;;;;;;;;5047393;28;20476;-59
2021/07/06 02:14:44;;;;;;;2.10;1.63;;;;;;;;;;5047756;28;20480;-59
2021/07/06 02:17:12;;;;;;;1.73;1.57;;;;;;;;;;5047837;28;20967;-60
2021/07/06 02:19:39;;;;;;;1.93;1.40;;;;;;;;;;5046870;28;20469;-58
2021/07/06 02:22:07;;;;;;;1.70;1.60;;;;;;;;;;5047883;28;20495;-59
2021/07/06 02:24:34;;;;;;;2.17;1.90;;;;;;;;;;5046020;28;20495;-58
2021/07/06 02:27:01;;;;;;;3.10;2.00;;;;;;;;;;5035147;28;20798;-59
2021/07/06 02:32:01;;;;;;;4.30;2.20;;;;;;;;;;5052176;22;20932;-61
2021/07/06 02:34:28;;;;;;;2.60;1.80;;;;;;;;;;5035067;28;20488;-61
2021/07/06 02:36:55;;;;;;;3.70;2.00;;;;;;;;;;5035091;28;20449;-62
2021/07/06 02:39:23;;;;;;;3.73;1.87;;;;;;;;;;5035213;28;20540;-61
2021/07/06 02:41:50;;;;;;;1.87;1.77;;;;;;;;;;5034844;28;20534;-61
2021/07/06 02:44:17;;;;;;;3.53;2.10;;;;;;;;;;5035034;28;20441;-62
2021/07/06 02:46:45;;;;;;;9.00;2.93;;;;;;;;;;5033799;28;20457;-62
2021/07/06 02:49:13;;;;;;;2.37;1.70;;;;;;;;;;5034846;28;20437;-61
2021/07/06 02:51:41;;;;;;;1.90;1.80;;;;;;;;;;5034573;28;20965;-62
2021/07/06 02:54:08;;;;;;;1.77;1.67;;;;;;;;;;5034454;28;20469;-62
2021/07/06 02:56:35;;;;;;;2.70;2.00;;;;;;;;;;5034997;28;20445;-61
2021/07/06 02:59:03;;;;;;;3.40;1.70;;;;;;;;;;5034715;28;20506;-61
2021/07/06 03:01:30;;;;;;;2.47;2.27;;;;;;;;;;5034587;28;20469;-61
2021/07/06 03:03:57;;;;;;;1.70;1.60;;;;;;;;;;5034345;28;20441;-61
2021/07/06 03:06:28;;;;;;;3.00;1.70;;;;;;;;;;5034643;28;20544;-61
2021/07/06 03:08:56;;;;;;;1.90;1.80;;;;;;;;;;5034749;28;20529;-61
2021/07/06 03:11:23;;;;;;;4.10;1.83;;;;;;;;;;5034165;28;20548;-60
2021/07/06 03:13:51;;;;;;;2.30;2.10;;;;;;;;;;5034324;28;20476;-60
2021/07/06 03:16:18;;;;;;;3.53;2.40;;;;;;;;;;5034176;28;20499;-61
2021/07/06 03:18:45;;;;;;;14.17;10.70;;;;;;;;;;5034201;28;20519;-61
2021/07/06 03:21:12;;;;;;;3.00;2.60;;;;;;;;;;5034118;28;20473;-62
2021/07/06 03:23:41;;;;;;;3.00;2.00;;;;;;;;;;5033895;28;21001;-61
2021/07/06 03:26:08;;;;;;;3.20;1.63;;;;;;;;;;5034129;28;20445;-61
2021/07/06 03:28:38;;;;;;;2.40;1.93;;;;;;;;;;5034068;28;20995;-61
2021/07/06 03:31:05;;;;;;;3.13;1.43;;;;;;;;;;5034159;28;20477;-61
2021/07/06 03:33:32;;;;;;;2.80;1.43;;;;;;;;;;5034310;28;20480;-61
2021/07/06 03:35:59;;;;;;;2.30;1.67;;;;;;;;;;5034068;28;20445;-61
2021/07/06 03:38:27;;;;;;;2.33;1.97;;;;;;;;;;5034083;28;20449;-61
2021/07/06 03:40:55;;;;;;;4.43;2.67;;;;;;;;;;5033848;28;20477;-61
2021/07/06 03:43:23;;;;;;;1.80;1.70;;;;;;;;;;5033688;28;20444;-61
2021/07/06 03:45:50;;;;;;;2.63;1.90;;;;;;;;;;5034483;28;20444;-61
2021/07/06 03:48:17;;;;;;;4.03;2.03;;;;;;;;;;5033646;28;20498;-61
2021/07/06 03:50:44;;;;;;;3.00;2.63;;;;;;;;;;5033564;28;20526;-61
2021/07/06 03:53:12;;;;;;;2.30;1.70;;;;;;;;;;5033678;28;20503;-61
2021/07/06 03:55:39;;;;;;;3.10;1.73;;;;;;;;;;5033511;28;20546;-61
2021/07/06 03:58:08;;;;;;;2.90;2.47;;;;;;;;;;5033147;28;20890;-61
2021/07/06 04:00:35;;;;;;;1.40;1.30;;;;;;;;;;5033323;28;20485;-59
2021/07/06 04:03:02;;;;;;;2.07;1.50;;;;;;;;;;5033543;28;20448;-60
2021/07/06 04:08:18;;;;;;;1.60;1.30;;;;;;;;;;5091463;27;20553;-62
2021/07/06 04:10:45;;;;;;;2.27;1.87;;;;;;;;;;5090931;28;20519;-62
2021/07/06 04:13:12;;;;;;;2.27;1.70;;;;;;;;;;5091031;28;20437;-62
2021/07/06 04:15:40;;;;;;;2.70;1.73;;;;;;;;;;5091187;28;20442;-62
2021/07/06 04:18:07;;;;;;;1.90;1.73;;;;;;;;;;5090594;28;20442;-60
2021/07/06 04:20:34;;;;;;;2.43;1.70;;;;;;;;;;5090899;28;20466;-61
2021/07/06 04:23:01;;;;;;;2.20;2.00;;;;;;;;;;5090866;28;21029;-60
2021/07/06 04:25:31;;;;;;;2.37;2.17;;;;;;;;;;5090720;28;21005;-60
2021/07/06 04:27:59;;;;;;;2.37;2.13;;;;;;;;;;5091157;28;20479;-59
2021/07/06 04:30:26;;;;;;;2.50;1.70;;;;;;;;;;5090593;28;20846;-60
2021/07/06 04:32:53;;;;;;;1.90;1.67;;;;;;;;;;5090210;28;20923;-60
2021/07/06 04:35:22;;;;;;;1.60;1.50;;;;;;;;;;5090113;28;20439;-60
2021/07/06 04:37:50;;;;;;;1.80;1.53;;;;;;;;;;5090625;28;20442;-61
2021/07/06 04:40:17;;;;;;;1.67;1.50;;;;;;;;;;5090937;28;20511;-61
2021/07/06 04:42:46;;;;;;;3.50;1.53;;;;;;;;;;5090526;28;20447;-60
2021/07/06 04:45:13;;;;;;;3.40;2.00;;;;;;;;;;5090791;28;20470;-60
2021/07/06 04:47:42;;;;;;;2.50;1.37;;;;;;;;;;5090415;28;21076;-61
2021/07/06 04:50:11;;;;;;;1.50;1.40;;;;;;;;;;5091174;28;20471;-61
2021/07/06 04:52:40;;;;;;;1.73;1.47;;;;;;;;;;5110207;28;20443;-64
2021/07/06 04:55:08;;;;;;;4.00;1.40;;;;;;;;;;5110059;28;20445;-63
2021/07/06 04:57:35;;;;;;;2.27;2.07;;;;;;;;;;5108956;28;20437;-63
2021/07/06 05:00:04;;;;;;;3.47;1.40;;;;;;;;;;5094050;28;20465;-62
2021/07/06 05:02:31;;;;;;;2.67;1.90;;;;;;;;;;5091397;28;20512;-61
2021/07/06 05:04:59;;;;;;;1.90;1.47;;;;;;;;;;5089756;28;20930;-61
2021/07/06 05:07:26;;;;;;;1.50;1.40;;;;;;;;;;5089626;28;20829;-61
2021/07/06 05:09:53;;;;;;;2.03;1.30;;;;;;;;;;5089677;28;20447;-61
2021/07/06 05:12:20;;;;;;;2.90;1.43;;;;;;;;;;5089638;28;20442;-61
2021/07/06 05:14:48;;;;;;;4.33;2.00;;;;;;;;;;5089683;28;20464;-59
2021/07/06 05:17:16;;;;;;;1.57;1.47;;;;;;;;;;5089665;28;20439;-62
2021/07/06 05:19:44;;;;;;;5.30;1.90;;;;;;;;;;5075299;28;20997;-60
2021/07/06 05:22:11;;;;;;;2.97;1.80;;;;;;;;;;5075777;28;20447;-63
2021/07/06 05:24:38;;;;;;;1.63;1.53;;;;;;;;;;5075895;28;20441;-61
2021/07/06 05:27:06;;;;;;;6.67;2.30;;;;;;;;;;5075997;28;20476;-61
2021/07/06 05:29:33;;;;;;;3.23;1.53;;;;;;;;;;5075852;28;20449;-61
2021/07/06 05:32:00;;;;;;;3.33;1.53;;;;;;;;;;5075310;28;20439;-62
2021/07/06 05:34:29;;;;;;;2.80;1.47;;;;;;;;;;5075501;28;20496;-62
2021/07/06 05:36:56;;;;;;;3.43;1.40;;;;;;;;;;5075136;28;20440;-61
2021/07/06 05:39:24;;;;;;;2.30;1.70;;;;;;;;;;5075687;28;20523;-62
2021/07/06 05:41:51;;;;;;;2.50;1.80;;;;;;;;;;5075343;28;20977;-61
2021/07/06 05:44:18;;;;;;;3.20;1.80;;;;;;;;;;5075450;28;20441;-61
2021/07/06 05:46:46;;;;;;;3.20;1.73;;;;;;;;;;5074858;28;20476;-60
2021/07/06 05:49:13;;;;;;;6.90;3.50;;;;;;;;;;5075047;28;20960;-61
2021/07/06 05:51:42;;;;;;;2.83;1.57;;;;;;;;;;5075448;28;20468;-62
2021/07/06 05:54:09;;;;;;;2.37;2.00;;;;;;;;;;5075204;28;20489;-65
2021/07/06 05:56:36;;;;;;;3.33;2.40;;;;;;;;;;5075539;28;20472;-65
2021/07/06 05:59:04;;;;;;;3.47;1.97;;;;;;;;;;5074910;28;20449;-66
2021/07/06 06:01:34;;;;;;;4.40;2.20;;;;;;;;;;5075107;28;20475;-66
2021/07/06 06:04:01;;;;;;;3.63;2.10;;;;;;;;;;5074738;28;20495;-60
2021/07/06 06:06:29;;;;;;;3.53;2.20;;;;;;;;;;5074967;28;20514;-61
2021/07/06 06:08:58;;;;;;;2.30;2.10;;;;;;;;;;5074588;28;20487;-60
2021/07/06 06:11:25;;;;;;;2.67;2.00;;;;;;;;;;5074469;28;20470;-61
2021/07/06 06:13:52;;;;;;;3.27;1.80;;;;;;;;;;5074382;28;20437;-60
2021/07/06 06:16:19;;;;;;;2.20;1.80;;;;;;;;;;5074777;28;20460;-61
2021/07/06 06:18:54;;;;;;;5.20;2.30;;;;;;;;;;5074874;28;20499;-61
2021/07/06 06:21:21;;;;;;;3.70;2.10;;;;;;;;;;5074614;28;20472;-61
2021/07/06 06:23:48;;;;;;;6.03;2.40;;;;;;;;;;5074710;28;20445;-61
2021/07/06 06:26:17;;;;;;;3.20;1.70;;;;;;;;;;5074249;28;20444;-60
2021/07/06 06:28:45;;;;;;;3.17;1.80;;;;;;;;;;5074847;28;20479;-58
2021/07/06 06:31:12;;;;;;;4.50;1.57;;;;;;;;;;5073691;28;20469;-60
2021/07/06 06:33:39;;;;;;;1.73;1.47;;;;;;;;;;5074369;28;20517;-60
2021/07/06 06:36:06;;;;;;;4.63;1.30;;;;;;;;;;5073868;28;20509;-59
2021/07/06 06:38:34;;;;;;;4.83;1.80;;;;;;;;;;5073712;28;20508;-60
2021/07/06 06:41:01;;;;;;;2.90;1.47;;;;;;;;;;5075640;28;20468;-60
2021/07/06 06:43:30;;;;;;;2.23;1.67;;;;;;;;;;5073757;28;20442;-60
2021/07/06 06:45:57;;;;;;;3.23;1.70;;;;;;;;;;5073884;28;20862;-61
2021/07/06 06:48:24;;;;;;;3.20;1.87;;;;;;;;;;5073903;28;20492;-60
2021/07/06 06:50:51;;;;;;;2.60;2.07;;;;;;;;;;5073830;28;20477;-59
2021/07/06 06:53:19;;;;;;;1.90;1.70;;;;;;;;;;5073881;28;20443;-60
2021/07/06 06:55:46;;;;;;;2.10;1.90;;;;;;;;;;5073407;28;20805;-60
2021/07/06 06:58:14;;;;;;;3.50;2.10;;;;;;;;;;5074045;28;20499;-59
2021/07/06 07:00:43;;;;;;;2.77;2.03;;;;;;;;;;5074326;28;20473;-59
2021/07/06 07:03:11;;;;;;;3.30;2.00;;;;;;;;;;5074152;28;20464;-59
2021/07/06 07:05:39;;;;;;;3.70;1.90;;;;;;;;;;5073965;28;20477;-58
2021/07/06 07:08:06;;;;;;;3.90;1.80;;;;;;;;;;5074153;28;20894;-60
2021/07/06 07:10:34;;;;;;;3.17;1.40;;;;;;;;;;5074108;28;20900;-60
2021/07/06 07:13:01;;;;;;;2.30;2.00;;;;;;;;;;5073677;28;20456;-60
2021/07/06 07:15:29;;;;;;;1.93;1.70;;;;;;;;;;5073454;28;20446;-60
2021/07/06 07:17:57;;;;;;;6.70;2.27;;;;;;;;;;5073552;28;20451;-60
2021/07/06 07:20:24;;;;;;;2.47;1.87;;;;;;;;;;5073464;28;20526;-60
2021/07/06 07:22:52;;;;;;;2.93;1.50;;;;;;;;;;5073578;28;20511;-60
2021/07/06 07:25:20;;;;;;;1.87;1.33;;;;;;;;;;5073328;28;20473;-59
2021/07/06 07:27:48;;;;;;;3.73;1.70;;;;;;;;;;5073281;28;20507;-61
2021/07/06 07:30:16;;;;;;;6.00;1.97;;;;;;;;;;5073714;28;20527;-61
2021/07/06 07:32:43;;;;;;;3.83;2.17;;;;;;;;;;5073891;28;20479;-60
2021/07/06 07:35:13;;;;;;;2.13;1.57;;;;;;;;;;5074005;28;20864;-61
2021/07/06 07:37:40;;;;;;;4.17;1.83;;;;;;;;;;5074023;28;20464;-59
2021/07/06 07:40:08;;;;;;;4.20;1.90;;;;;;;;;;5075733;28;20469;-67
2021/07/06 07:42:36;;;;;;;3.33;1.73;;;;;;;;;;5078747;28;20439;-58
2021/07/06 07:45:03;;;;;;;2.63;1.60;;;;;;;;;;5080316;28;20452;-64
2021/07/06 07:47:30;;;;;;;3.83;1.50;;;;;;;;;;5074222;28;20497;-59
2021/07/06 07:49:58;;;;;;;2.70;1.70;;;;;;;;;;5073364;28;20990;-59
2021/07/06 07:52:26;;;;;;;2.33;1.70;;;;;;;;;;5073380;28;20490;-60
2021/07/06 07:54:54;;;;;;;2.47;1.60;;;;;;;;;;5073526;28;20450;-60
2021/07/06 07:57:27;;;;;;;2.43;2.20;;;;;;;;;;5073731;28;20499;-60
2021/07/06 07:59:54;;;;;;;2.73;1.70;;;;;;;;;;5072687;28;20442;-60
2021/07/06 08:02:22;;;;;;;2.60;1.90;;;;;;;;;;5072856;28;20448;-60
2021/07/06 08:04:49;;;;;;;2.43;1.70;;;;;;;;;;5072513;28;20804;-61
2021/07/06 08:07:17;;;;;;;3.27;1.83;;;;;;;;;;5072206;28;20458;-59
2021/07/06 08:09:46;;;;;;;3.13;1.67;;;;;;;;;;5072681;28;20865;-61
2021/07/06 08:12:13;;;;;;;1.67;1.40;;;;;;;;;;5073026;28;20497;-60
2021/07/06 08:14:41;;;;;;;3.33;1.77;;;;;;;;;;5072835;28;20496;-60
2021/07/06 08:17:08;;;;;;;5.50;2.10;;;;;;;;;;5073070;28;20453;-59
2021/07/06 08:19:36;;;;;;;4.03;1.63;;;;;;;;;;5072917;28;20442;-60
2021/07/06 08:22:03;;;;;;;2.70;1.60;;;;;;;;;;5073237;28;20825;-59
2021/07/06 08:24:31;;;;;;;2.23;1.60;;;;;;;;;;5073278;28;20534;-60
2021/07/06 08:27:00;;;;;;;1.90;1.60;;;;;;;;;;5073019;28;20445;-60
2021/07/06 08:29:27;;;;;;;8.40;2.37;;;;;;;;;;5072544;28;20887;-60
2021/07/06 08:31:55;;;;;;;3.47;1.77;;;;;;;;;;5077649;22;20495;-59
2021/07/06 08:34:22;;;;;;;2.17;1.70;;;;;;;;;;5032270;28;20797;-57
2021/07/06 08:36:49;;;;;;;2.00;1.63;;;;;;;;;;5032383;28;20506;-57
2021/07/06 08:39:17;;;;;;;3.47;1.90;;;;;;;;;;5032141;28;20453;-57
2021/07/06 08:41:44;;;;;;;1.77;1.67;;;;;;;;;;5032030;28;20994;-58
2021/07/06 08:44:12;;;;;;;2.90;1.93;;;;;;;;;;5032894;28;20498;-57
2021/07/06 08:46:40;;;;;;;2.20;1.70;;;;;;;;;;5032141;28;20846;-57
2021/07/06 08:49:07;;;;;;;2.50;1.50;;;;;;;;;;5032235;28;20952;-57
2021/07/06 08:51:35;;;;;;;2.67;1.67;;;;;;;;;;5032406;28;20535;-58
2021/07/06 08:54:03;;;;;;;4.63;1.90;;;;;;;;;;5034511;28;20458;-57
2021/07/06 08:56:30;;;;;;;2.90;1.80;;;;;;;;;;5035880;28;20496;-58
2021/07/06 08:58:58;;;;;;;2.10;1.63;;;;;;;;;;5036178;28;20533;-58
2021/07/06 09:01:28;;;;;;;2.70;1.50;;;;;;;;;;5035846;28;20978;-57
2021/07/06 09:03:56;;;;;;;3.43;1.80;;;;;;;;;;5035725;28;20465;-57
2021/07/06 09:06:24;;;;;;;3.30;1.70;;;;;;;;;;5035799;28;20493;-57
2021/07/06 09:08:52;;;;;;;4.77;1.50;;;;;;;;;;5035563;28;20527;-57
2021/07/06 09:11:20;;;;;;;2.03;1.40;;;;;;;;;;5035530;28;20977;-58
2021/07/06 09:13:48;;;;;;;1.73;1.50;;;;;;;;;;5036316;28;20492;-58
2021/07/06 09:16:21;;;;;;;2.03;1.83;;;;;;;;;;5035898;28;20447;-57
2021/07/06 09:18:50;;;;;;;2.37;1.70;;;;;;;;;;5035802;28;20968;-57
2021/07/06 09:21:17;;;;;;;1.90;1.70;;;;;;;;;;5035441;28;20546;-57
2021/07/06 09:23:45;;;;;;;2.40;1.40;;;;;;;;;;5035078;28;20477;-57
2021/07/06 09:26:17;;;;;;;2.57;2.00;;;;;;;;;;5035330;28;20471;-58
2021/07/06 09:28:45;;;;;;;1.70;1.50;;;;;;;;;;5035260;28;20460;-58
2021/07/06 09:31:24;;;;;;;2.20;1.47;;;;;;;;;;5035069;28;20467;-58
2021/07/06 09:33:55;;;;;;;5.90;1.73;;;;;;;;;;5035184;28;20472;-58
2021/07/06 09:36:26;;;;;;;3.33;1.50;;;;;;;;;;5035489;28;20440;-58
2021/07/06 09:39:14;;;;;;;2.00;1.73;;;;;;;;;;5035280;28;20438;-58
2021/07/06 09:41:45;;;;;;;3.17;1.90;;;;;;;;;;5030623;28;20542;-58
2021/07/06 09:44:16;;;;;;;2.90;1.80;;;;;;;;;;5035778;28;20857;-56
2021/07/06 09:46:47;;;;;;;2.50;1.90;;;;;;;;;;5035114;28;20502;-58
2021/07/06 09:49:18;;;;;;;1.93;1.60;;;;;;;;;;5035237;28;20482;-58
2021/07/06 09:51:45;;;;;;;3.13;1.50;;;;;;;;;;5035220;28;20469;-58
2021/07/06 09:54:24;;;;;;;2.23;1.30;;;;;;;;;;5034922;28;20957;-58
2021/07/06 09:56:52;;;;;;;2.60;1.60;;;;;;;;;;5034745;28;20829;-58
2021/07/06 09:59:19;;;;;;;2.43;1.43;;;;;;;;;;5035079;28;20448;-58
2021/07/06 10:01:56;;;;;;;2.40;1.70;;;;;;;;;;5035017;28;20473;-58
2021/07/06 10:04:25;;;;;;;2.83;1.77;;;;;;;;;;5034748;28;20533;-57
2021/07/06 10:06:53;;;;;;;2.63;1.40;;;;;;;;;;5034472;28;20442;-57
2021/07/06 10:09:20;;;;;;;3.27;2.30;;;;;;;;;;5034896;28;20539;-57
2021/07/06 10:11:48;;;;;;;2.30;1.80;;;;;;;;;;5034109;28;21047;-57
2021/07/06 10:14:16;;;;;;;2.40;2.20;;;;;;;;;;5034261;28;20880;-58
2021/07/06 10:16:44;;;;;;;2.90;1.90;;;;;;;;;;5034257;28;20449;-58
2021/07/06 10:19:11;;;;;;;3.93;1.70;;;;;;;;;;5034716;28;20992;-57
2021/07/06 10:21:40;;;;;;;3.80;1.77;;;;;;;;;;5034851;28;20471;-58
2021/07/06 10:24:08;;;;;;;2.80;1.90;;;;;;;;;;5034369;28;20540;-57
2021/07/06 10:26:36;;;;;;;3.60;2.07;;;;;;;;;;5034085;28;20506;-58
2021/07/06 10:29:04;;;;;;;2.57;1.87;;;;;;;;;;5034690;28;20530;-56
2021/07/06 10:31:31;;;;;;;5.23;2.93;;;;;;;;;;5033854;28;20892;-57
2021/07/06 10:34:01;;;;;;;2.90;2.40;;;;;;;;;;5034359;28;20440;-56
2021/07/06 10:36:39;;;;;;;2.17;1.93;;;;;;;;;;5033698;28;20452;-56
2021/07/06 10:39:10;;;;;;;2.43;2.23;;;;;;;;;;5034002;28;20450;-56
2021/07/06 10:41:56;;;;;;;3.33;2.23;;;;;;;;;;5033849;28;20993;-57
2021/07/06 10:44:32;;;;;;;2.57;2.37;;;;;;;;;;5034070;28;20449;-56
2021/07/06 10:46:59;;;;;;;2.07;1.60;;;;;;;;;;5034126;28;20520;-57
2021/07/06 10:49:32;;;;;;;4.30;2.13;;;;;;;;;;5033483;28;20558;-56
2021/07/06 10:52:01;;;;;;;3.07;1.90;;;;;;;;;;5033989;28;20476;-57
2021/07/06 10:54:31;;;;;;;3.00;2.27;;;;;;;;;;5033942;28;20453;-57
2021/07/06 10:56:59;;;;;;;5.00;3.20;;;;;;;;;;5033847;28;20456;-57
2021/07/06 10:59:27;;;;;;;8.80;2.90;;;;;;;;;;5033556;28;20449;-57
2021/07/06 11:01:57;;;;;;;3.93;2.30;;;;;;;;;;5033336;28;20469;-57
2021/07/06 11:04:45;;;;;;;3.10;2.73;;;;;;;;;;5033342;28;20444;-57
2021/07/06 11:07:13;;;;;;;4.10;3.37;;;;;;;;;;5033369;28;20454;-57
2021/07/06 11:09:55;;;;;;;3.27;2.60;;;;;;;;;;5033359;28;20484;-57
2021/07/06 11:12:25;;;;;;;3.90;3.47;;;;;;;;;;5031445;28;20470;-58
2021/07/06 11:14:53;;;;;;;4.43;3.10;;;;;;;;;;5033661;28;20861;-58
2021/07/06 11:17:32;;;;;;;4.00;3.63;;;;;;;;;;5033047;28;20544;-57
2021/07/06 11:20:00;;;;;;;3.93;3.63;;;;;;;;;;5033719;28;20526;-57
2021/07/06 11:22:40;;;;;;;4.53;3.73;;;;;;;;;;5033345;28;20464;-58
2021/07/06 11:25:19;;;;;;;5.40;3.40;;;;;;;;;;5033193;28;20485;-57
2021/07/06 11:27:56;;;;;;;4.50;3.20;;;;;;;;;;5032921;28;20463;-57
2021/07/06 11:30:24;;;;;;;3.77;2.70;;;;;;;;;;5033256;28;20554;-57
2021/07/06 11:33:08;;;;;;;3.60;2.93;;;;;;;;;;5033009;28;20590;-57
2021/07/06 11:35:36;;;;;;;4.10;3.53;;;;;;;;;;5032885;28;20866;-57
2021/07/06 11:38:07;;;;;;;3.73;3.43;;;;;;;;;;5032733;28;20935;-57
2021/07/06 11:40:36;;;;;;;3.73;3.43;;;;;;;;;;5033200;28;20428;-57
2021/07/06 11:43:05;;;;;;;4.10;3.30;;;;;;;;;;5032576;28;20470;-57
2021/07/06 11:45:32;;;;;;;4.43;3.20;;;;;;;;;;5033068;28;20459;-57
2021/07/06 11:48:07;;;;;;;3.07;2.83;;;;;;;;;;5033418;28;20469;-59
2021/07/06 11:50:34;;;;;;;2.30;2.10;;;;;;;;;;5032428;28;20486;-59
2021/07/06 11:53:02;;;;;;;3.10;2.80;;;;;;;;;;5032905;28;20480;-59
2021/07/06 11:55:30;;;;;;;4.00;2.83;;;;;;;;;;5033097;28;20459;-59
2021/07/06 11:57:59;;;;;;;3.30;3.00;;;;;;;;;;5033118;28;20448;-59
2021/07/06 12:00:30;;;;;;;7.70;3.10;;;;;;;;;;5032841;28;20493;-60
2021/07/06 12:03:12;;;;;;;2.93;2.63;;;;;;;;;;5032599;28;20999;-59
2021/07/06 12:05:39;;;;;;;3.97;3.13;;;;;;;;;;5030826;28;20453;-58
2021/07/06 12:08:12;;;;;;;3.33;3.03;;;;;;;;;;5032867;28;20453;-58
2021/07/06 12:10:51;;;;;;;3.90;2.60;;;;;;;;;;5032711;28;21002;-58
2021/07/06 12:13:19;;;;;;;10.67;9.57;;;;;;;;;;5032991;28;20432;-59
2021/07/06 12:15:48;;;;;;;16.67;15.07;;;;;;;;;;5032856;28;20444;-58
2021/07/06 12:18:15;;;;;;;5.60;4.73;;;;;;;;;;5032887;28;20507;-60
2021/07/06 12:20:43;;;;;;;4.17;3.77;;;;;;;;;;5032680;28;20448;-59
2021/07/06 12:23:10;;;;;;;3.37;3.07;;;;;;;;;;5032965;28;20949;-56
2021/07/06 12:25:37;;;;;;;5.53;2.70;;;;;;;;;;5032507;28;20507;-58
2021/07/06 12:28:05;;;;;;;4.63;3.37;;;;;;;;;;5033443;28;20507;-59
2021/07/06 12:30:32;;;;;;;5.93;3.00;;;;;;;;;;5037257;28;20476;-59
2021/07/06 12:33:08;;;;;;;3.40;2.93;;;;;;;;;;5036588;28;20531;-59
2021/07/06 12:35:35;;;;;;;3.30;2.50;;;;;;;;;;5036359;28;20835;-59
2021/07/06 12:38:03;;;;;;;3.40;2.13;;;;;;;;;;5036646;28;20862;-57
2021/07/06 12:40:31;;;;;;;4.13;3.37;;;;;;;;;;5036202;28;20518;-57
2021/07/06 12:42:58;;;;;;;2.40;2.20;;;;;;;;;;5036049;28;20517;-58
2021/07/06 12:45:33;;;;;;;3.13;2.80;;;;;;;;;;5036029;28;20447;-58
2021/07/06 12:48:01;;;;;;;6.10;2.27;;;;;;;;;;5037461;28;20467;-58
2021/07/06 12:50:32;;;;;;;2.30;2.10;;;;;;;;;;5035752;28;21002;-59
2021/07/06 12:53:06;;;;;;;2.37;2.17;;;;;;;;;;5035809;28;20979;-59
2021/07/06 12:55:33;;;;;;;2.23;1.73;;;;;;;;;;5036089;28;20451;-59
2021/07/06 12:58:09;;;;;;;2.13;1.70;;;;;;;;;;5035924;28;20453;-59
2021/07/06 13:00:37;;;;;;;2.47;1.60;;;;;;;;;;5035737;28;20857;-58
2021/07/06 13:03:05;;;;;;;2.77;1.80;;;;;;;;;;5035298;28;20914;-59
2021/07/06 13:05:37;;;;;;;2.30;1.80;;;;;;;;;;5035737;28;20865;-57
2021/07/06 13:08:05;;;;;;;1.40;1.30;;;;;;;;;;5035634;28;20429;-58
2021/07/06 13:10:33;;;;;;;2.67;1.73;;;;;;;;;;5035432;28;20532;-59
2021/07/06 13:13:01;;;;;;;4.03;1.57;;;;;;;;;;5035860;28;20470;-58
2021/07/06 13:15:36;;;;;;;1.53;1.43;;;;;;;;;;5036087;28;20453;-60
2021/07/06 13:18:04;;;;;;;2.07;1.50;;;;;;;;;;5035720;28;20430;-59
2021/07/06 13:20:35;;;;;;;1.60;1.33;;;;;;;;;;5035432;28;20442;-59
2021/07/06 13:23:02;;;;;;;1.57;1.20;;;;;;;;;;5035190;28;20472;-59
2021/07/06 13:25:29;;;;;;;1.50;1.40;;;;;;;;;;5035236;28;20450;-57
2021/07/06 13:28:00;;;;;;;1.90;1.40;;;;;;;;;;5035173;28;20499;-59
2021/07/06 13:30:28;;;;;;;1.70;1.33;;;;;;;;;;5036158;28;20476;-59
2021/07/06 13:32:55;;;;;;;2.73;1.77;;;;;;;;;;5035541;28;20478;-59
2021/07/06 13:35:23;;;;;;;1.90;1.50;;;;;;;;;;5034886;28;20444;-57
2021/07/06 13:37:52;;;;;;;1.70;1.40;;;;;;;;;;5035128;28;20453;-58
2021/07/06 13:40:19;;;;;;;2.37;1.80;;;;;;;;;;5034854;28;20456;-57
2021/07/06 13:42:47;;;;;;;3.10;1.50;;;;;;;;;;5035029;28;20465;-59
2021/07/06 13:45:15;;;;;;;3.30;1.80;;;;;;;;;;5034790;28;20905;-60
2021/07/06 13:47:42;;;;;;;1.77;1.30;;;;;;;;;;5034695;28;20508;-59
2021/07/06 13:50:11;;;;;;;3.40;1.30;;;;;;;;;;5034765;28;21003;-59
2021/07/06 13:52:39;;;;;;;1.57;1.03;;;;;;;;;;5035111;28;20979;-58
2021/07/06 13:55:10;;;;;;;2.17;1.20;;;;;;;;;;5034996;28;20451;-59
2021/07/06 13:57:38;;;;;;;2.83;1.40;;;;;;;;;;5035633;28;20513;-59
2021/07/06 14:00:06;;;;;;;2.10;1.37;;;;;;;;;;5035162;28;20522;-59
2021/07/06 14:02:34;;;;;;;1.80;1.40;;;;;;;;;;5034968;28;20466;-60
2021/07/06 14:05:01;;;;;;;1.90;1.00;;;;;;;;;;5034932;28;20811;-59
2021/07/06 14:07:29;;;;;;;1.50;1.40;;;;;;;;;;5034362;28;20495;-61
2021/07/06 14:09:56;;;;;;;1.73;1.60;;;;;;;;;;5034356;28;20547;-58
2021/07/06 14:12:25;;;;;;;4.33;1.60;;;;;;;;;;5034580;28;20471;-60
2021/07/06 14:14:52;;;;;;;4.37;1.80;;;;;;;;;;5034275;28;20935;-60
2021/07/06 14:17:19;;;;;;;2.90;2.07;;;;;;;;;;5034565;28;20455;-59
2021/07/06 14:19:47;;;;;;;1.70;1.50;;;;;;;;;;5034670;28;20495;-59
2021/07/06 14:22:14;;;;;;;1.90;1.13;;;;;;;;;;5034589;28;20515;-59
2021/07/06 14:24:41;;;;;;;1.30;1.10;;;;;;;;;;5034064;28;20977;-59
2021/07/06 14:27:08;;;;;;;2.83;1.60;;;;;;;;;;5034947;28;20458;-60
2021/07/06 14:29:37;;;;;;;1.70;1.60;;;;;;;;;;5034361;28;20554;-59
2021/07/06 14:32:05;;;;;;;1.20;1.10;;;;;;;;;;5068405;22;21006;-60
2021/07/06 14:34:32;;;;;;;1.30;1.20;;;;;;;;;;5034487;28;20447;-59
2021/07/06 14:36:59;;;;;;;1.20;1.03;;;;;;;;;;5034692;28;20447;-59
2021/07/06 14:39:26;;;;;;;1.77;1.27;;;;;;;;;;5034378;28;20746;-59
2021/07/06 14:41:54;;;;;;;1.60;1.50;;;;;;;;;;5034981;28;20491;-59
2021/07/06 14:44:22;;;;;;;3.23;1.33;;;;;;;;;;5034797;28;20492;-60
2021/07/06 14:46:51;;;;;;;1.30;1.17;;;;;;;;;;5034787;28;20531;-60
2021/07/06 14:49:20;;;;;;;2.63;1.97;;;;;;;;;;5034570;28;20470;-61
2021/07/06 14:51:47;;;;;;;2.23;1.53;;;;;;;;;;5034429;28;20817;-60
2021/07/06 14:54:15;;;;;;;1.33;1.13;;;;;;;;;;5034703;28;20940;-60
2021/07/06 14:56:42;;;;;;;3.87;1.60;;;;;;;;;;5034599;28;20442;-62